sensor_id;sensor_type;location;lat;lon;timestamp;P1;durP1;ratioP1;P2;durP2;ratioP2
49101;SDS011;34913;47.520;19.186;2022-08-07T00:00:30;2.08;;;1.88;;
49101;SDS011;34913;47.520;19.186;2022-08-07T00:02:55;3.03;;;1.80;;
49101;SDS011;34913;47.520;19.186;2022-08-07T00:05:21;2.78;;;1.73;;
49101;SDS011;34913;47.520;19.186;2022-08-07T00:07:47;2.13;;;1.92;;
49101;SDS011;34913;47.520;19.186;2022-08-07T00:10:13;2.10;;;1.90;;
49101;SDS011;34913;47.520;19.186;2022-08-07T00:12:39;2.20;;;1.83;;
49101;SDS011;34913;47.520;19.186;2022-08-07T00:15:04;1.70;;;1.60;;
49101;SDS011;34913;47.520;19.186;2022-08-07T00:17:31;2.60;;;1.70;;
49101;SDS011;34913;47.520;19.186;2022-08-07T00:19:57;4.45;;;1.90;;
49101;SDS011;34913;47.520;19.186;2022-08-07T00:22:22;4.60;;;1.80;;
49101;SDS011;34913;47.520;19.186;2022-08-07T00:24:48;1.70;;;1.60;;
49101;SDS011;34913;47.520;19.186;2022-08-07T00:27:13;2.20;;;2.00;;
49101;SDS011;34913;47.520;19.186;2022-08-07T00:29:38;2.30;;;2.00;;
49101;SDS011;34913;47.520;19.186;2022-08-07T00:32:04;3.28;;;1.73;;
49101;SDS011;34913;47.520;19.186;2022-08-07T00:34:30;1.73;;;1.63;;
49101;SDS011;34913;47.520;19.186;2022-08-07T00:36:56;1.90;;;1.80;;
49101;SDS011;34913;47.520;19.186;2022-08-07T00:39:21;3.78;;;1.80;;
49101;SDS011;34913;47.520;19.186;2022-08-07T00:41:51;2.72;;;1.80;;
49101;SDS011;34913;47.520;19.186;2022-08-07T00:46:44;2.65;;;1.60;;
49101;SDS011;34913;47.520;19.186;2022-08-07T00:49:09;2.03;;;1.80;;
49101;SDS011;34913;47.520;19.186;2022-08-07T00:51:35;1.83;;;1.73;;
49101;SDS011;34913;47.520;19.186;2022-08-07T00:54:00;1.67;;;1.58;;
49101;SDS011;34913;47.520;19.186;2022-08-07T00:56:26;2.08;;;1.70;;
49101;SDS011;34913;47.520;19.186;2022-08-07T00:58:53;2.55;;;1.90;;
49101;SDS011;34913;47.520;19.186;2022-08-07T01:01:20;1.73;;;1.63;;
49101;SDS011;34913;47.520;19.186;2022-08-07T01:03:46;1.95;;;1.85;;
49101;SDS011;34913;47.520;19.186;2022-08-07T01:06:18;1.75;;;1.65;;
49101;SDS011;34913;47.520;19.186;2022-08-07T01:08:45;1.90;;;1.80;;
49101;SDS011;34913;47.520;19.186;2022-08-07T01:11:12;2.20;;;1.98;;
49101;SDS011;34913;47.520;19.186;2022-08-07T01:13:39;1.98;;;1.88;;
49101;SDS011;34913;47.520;19.186;2022-08-07T01:16:05;1.95;;;1.75;;
49101;SDS011;34913;47.520;19.186;2022-08-07T01:18:34;2.83;;;1.85;;
49101;SDS011;34913;47.520;19.186;2022-08-07T01:23:39;1.88;;;1.75;;
49101;SDS011;34913;47.520;19.186;2022-08-07T01:26:07;3.85;;;1.92;;
49101;SDS011;34913;47.520;19.186;2022-08-07T01:28:34;2.97;;;2.22;;
49101;SDS011;34913;47.520;19.186;2022-08-07T01:31:00;1.85;;;1.75;;
49101;SDS011;34913;47.520;19.186;2022-08-07T01:33:27;2.05;;;1.80;;
49101;SDS011;34913;47.520;19.186;2022-08-07T01:35:54;2.22;;;1.98;;
49101;SDS011;34913;47.520;19.186;2022-08-07T01:38:22;2.60;;;1.90;;
49101;SDS011;34913;47.520;19.186;2022-08-07T01:40:48;1.85;;;1.75;;
49101;SDS011;34913;47.520;19.186;2022-08-07T01:43:16;2.47;;;1.88;;
49101;SDS011;34913;47.520;19.186;2022-08-07T01:45:42;2.10;;;1.70;;
49101;SDS011;34913;47.520;19.186;2022-08-07T01:48:08;2.60;;;2.03;;
49101;SDS011;34913;47.520;19.186;2022-08-07T01:50:36;1.92;;;1.80;;
49101;SDS011;34913;47.520;19.186;2022-08-07T01:53:03;3.42;;;1.88;;
49101;SDS011;34913;47.520;19.186;2022-08-07T01:55:38;2.85;;;2.03;;
49101;SDS011;34913;47.520;19.186;2022-08-07T01:58:08;1.85;;;1.63;;
49101;SDS011;34913;47.520;19.186;2022-08-07T02:00:38;1.85;;;1.65;;
49101;SDS011;34913;47.520;19.186;2022-08-07T02:03:06;2.40;;;1.92;;
49101;SDS011;34913;47.520;19.186;2022-08-07T02:05:43;2.05;;;1.85;;
49101;SDS011;34913;47.520;19.186;2022-08-07T02:08:15;1.95;;;1.85;;
49101;SDS011;34913;47.520;19.186;2022-08-07T02:10:44;2.03;;;1.73;;
49101;SDS011;34913;47.520;19.186;2022-08-07T02:13:12;1.92;;;1.83;;
49101;SDS011;34913;47.520;19.186;2022-08-07T02:15:39;1.70;;;1.60;;
49101;SDS011;34913;47.520;19.186;2022-08-07T02:18:09;2.33;;;2.10;;
49101;SDS011;34913;47.520;19.186;2022-08-07T02:20:36;2.22;;;1.90;;
49101;SDS011;34913;47.520;19.186;2022-08-07T02:23:04;2.10;;;1.90;;
49101;SDS011;34913;47.520;19.186;2022-08-07T02:25:32;2.00;;;1.90;;
49101;SDS011;34913;47.520;19.186;2022-08-07T02:28:00;2.25;;;1.92;;
49101;SDS011;34913;47.520;19.186;2022-08-07T02:30:26;2.05;;;1.85;;
49101;SDS011;34913;47.520;19.186;2022-08-07T02:32:53;1.90;;;1.70;;
49101;SDS011;34913;47.520;19.186;2022-08-07T02:35:21;2.28;;;1.83;;
49101;SDS011;34913;47.520;19.186;2022-08-07T02:37:48;1.98;;;1.88;;
49101;SDS011;34913;47.520;19.186;2022-08-07T02:40:16;2.08;;;1.88;;
49101;SDS011;34913;47.520;19.186;2022-08-07T02:42:42;4.63;;;1.80;;
49101;SDS011;34913;47.520;19.186;2022-08-07T02:45:09;3.78;;;2.20;;
49101;SDS011;34913;47.520;19.186;2022-08-07T02:47:38;2.22;;;1.80;;
49101;SDS011;34913;47.520;19.186;2022-08-07T02:50:04;2.17;;;1.98;;
49101;SDS011;34913;47.520;19.186;2022-08-07T02:52:34;1.80;;;1.70;;
49101;SDS011;34913;47.520;19.186;2022-08-07T02:55:09;2.30;;;1.88;;
49101;SDS011;34913;47.520;19.186;2022-08-07T02:57:38;2.13;;;1.90;;
49101;SDS011;34913;47.520;19.186;2022-08-07T03:00:04;2.13;;;1.92;;
49101;SDS011;34913;47.520;19.186;2022-08-07T03:02:31;2.45;;;1.70;;
49101;SDS011;34913;47.520;19.186;2022-08-07T03:04:59;1.90;;;1.80;;
49101;SDS011;34913;47.520;19.186;2022-08-07T03:07:26;2.38;;;1.73;;
49101;SDS011;34913;47.520;19.186;2022-08-07T03:09:53;3.38;;;1.70;;
49101;SDS011;34913;47.520;19.186;2022-08-07T03:12:19;2.00;;;1.80;;
49101;SDS011;34913;47.520;19.186;2022-08-07T03:14:45;2.13;;;1.92;;
49101;SDS011;34913;47.520;19.186;2022-08-07T03:17:11;2.95;;;1.80;;
49101;SDS011;34913;47.520;19.186;2022-08-07T03:19:36;2.47;;;1.60;;
49101;SDS011;34913;47.520;19.186;2022-08-07T03:22:05;1.83;;;1.60;;
49101;SDS011;34913;47.520;19.186;2022-08-07T03:24:32;1.70;;;1.60;;
49101;SDS011;34913;47.520;19.186;2022-08-07T03:26:59;3.72;;;1.70;;
49101;SDS011;34913;47.520;19.186;2022-08-07T03:29:27;7.15;;;1.50;;
49101;SDS011;34913;47.520;19.186;2022-08-07T03:34:24;1.70;;;1.60;;
49101;SDS011;34913;47.520;19.186;2022-08-07T03:36:51;3.35;;;1.50;;
49101;SDS011;34913;47.520;19.186;2022-08-07T03:39:19;3.25;;;1.52;;
49101;SDS011;34913;47.520;19.186;2022-08-07T03:41:46;1.70;;;1.60;;
49101;SDS011;34913;47.520;19.186;2022-08-07T03:44:12;1.40;;;1.30;;
49101;SDS011;34913;47.520;19.186;2022-08-07T03:46:38;1.55;;;1.45;;
49101;SDS011;34913;47.520;19.186;2022-08-07T03:49:06;2.17;;;1.45;;
49101;SDS011;34913;47.520;19.186;2022-08-07T03:51:33;1.40;;;1.30;;
49101;SDS011;34913;47.520;19.186;2022-08-07T03:53:59;1.45;;;1.35;;
49101;SDS011;34913;47.520;19.186;2022-08-07T03:56:25;2.33;;;1.50;;
49101;SDS011;34913;47.520;19.186;2022-08-07T03:58:54;1.58;;;1.23;;
49101;SDS011;34913;47.520;19.186;2022-08-07T04:01:20;1.77;;;1.45;;
49101;SDS011;34913;47.520;19.186;2022-08-07T04:03:48;1.63;;;1.40;;
49101;SDS011;34913;47.520;19.186;2022-08-07T04:06:14;3.17;;;1.55;;
49101;SDS011;34913;47.520;19.186;2022-08-07T04:08:40;3.05;;;1.55;;
49101;SDS011;34913;47.520;19.186;2022-08-07T04:11:09;2.03;;;1.60;;
49101;SDS011;34913;47.520;19.186;2022-08-07T04:13:35;1.58;;;1.48;;
49101;SDS011;34913;47.520;19.186;2022-08-07T04:16:01;1.67;;;1.40;;
49101;SDS011;34913;47.520;19.186;2022-08-07T04:18:27;1.40;;;1.20;;
49101;SDS011;34913;47.520;19.186;2022-08-07T04:20:53;1.95;;;1.40;;
49101;SDS011;34913;47.520;19.186;2022-08-07T04:23:18;1.40;;;1.30;;
49101;SDS011;34913;47.520;19.186;2022-08-07T04:25:44;1.63;;;1.40;;
49101;SDS011;34913;47.520;19.186;2022-08-07T04:28:11;2.25;;;1.20;;
49101;SDS011;34913;47.520;19.186;2022-08-07T04:30:37;1.80;;;1.30;;
49101;SDS011;34913;47.520;19.186;2022-08-07T04:33:07;2.80;;;1.45;;
49101;SDS011;34913;47.520;19.186;2022-08-07T04:35:34;1.38;;;1.10;;
49101;SDS011;34913;47.520;19.186;2022-08-07T04:38:05;2.28;;;1.30;;
49101;SDS011;34913;47.520;19.186;2022-08-07T04:40:31;1.57;;;1.30;;
49101;SDS011;34913;47.520;19.186;2022-08-07T04:42:57;1.80;;;1.30;;
49101;SDS011;34913;47.520;19.186;2022-08-07T04:45:23;2.95;;;1.30;;
49101;SDS011;34913;47.520;19.186;2022-08-07T04:53:47;1.40;;;1.25;;
49101;SDS011;34913;47.520;19.186;2022-08-07T04:56:43;1.20;;;1.10;;
49101;SDS011;34913;47.520;19.186;2022-08-07T04:59:15;1.77;;;1.40;;
49101;SDS011;34913;47.520;19.186;2022-08-07T05:09:39;1.25;;;1.15;;
49101;SDS011;34913;47.520;19.186;2022-08-07T05:12:16;1.77;;;1.10;;
49101;SDS011;34913;47.520;19.186;2022-08-07T05:14:46;3.37;;;1.10;;
49101;SDS011;34913;47.520;19.186;2022-08-07T05:17:16;2.08;;;1.17;;
49101;SDS011;34913;47.520;19.186;2022-08-07T05:19:46;1.17;;;1.10;;
49101;SDS011;34913;47.520;19.186;2022-08-07T05:22:14;1.20;;;1.10;;
49101;SDS011;34913;47.520;19.186;2022-08-07T05:24:42;1.75;;;1.02;;
49101;SDS011;34913;47.520;19.186;2022-08-07T05:27:11;2.00;;;1.10;;
49101;SDS011;34913;47.520;19.186;2022-08-07T05:29:40;2.15;;;1.10;;
49101;SDS011;34913;47.520;19.186;2022-08-07T05:32:06;1.17;;;1.02;;
49101;SDS011;34913;47.520;19.186;2022-08-07T05:34:34;2.65;;;1.10;;
49101;SDS011;34913;47.520;19.186;2022-08-07T05:37:00;0.90;;;0.90;;
49101;SDS011;34913;47.520;19.186;2022-08-07T05:39:27;1.00;;;1.00;;
49101;SDS011;34913;47.520;19.186;2022-08-07T05:41:54;1.25;;;0.90;;
49101;SDS011;34913;47.520;19.186;2022-08-07T05:44:20;1.00;;;1.00;;
49101;SDS011;34913;47.520;19.186;2022-08-07T05:46:49;1.00;;;1.00;;
49101;SDS011;34913;47.520;19.186;2022-08-07T05:49:16;1.00;;;1.00;;
49101;SDS011;34913;47.520;19.186;2022-08-07T05:51:43;1.38;;;1.10;;
49101;SDS011;34913;47.520;19.186;2022-08-07T05:54:09;1.48;;;0.98;;
49101;SDS011;34913;47.520;19.186;2022-08-07T05:56:36;1.45;;;1.00;;
49101;SDS011;34913;47.520;19.186;2022-08-07T05:59:04;1.05;;;1.00;;
49101;SDS011;34913;47.520;19.186;2022-08-07T06:01:34;2.58;;;1.10;;
49101;SDS011;34913;47.520;19.186;2022-08-07T06:04:00;0.90;;;0.85;;
49101;SDS011;34913;47.520;19.186;2022-08-07T06:06:30;2.83;;;0.95;;
49101;SDS011;34913;47.520;19.186;2022-08-07T06:08:58;2.30;;;1.02;;
49101;SDS011;34913;47.520;19.186;2022-08-07T06:11:25;1.15;;;0.90;;
49101;SDS011;34913;47.520;19.186;2022-08-07T06:13:50;1.30;;;0.93;;
49101;SDS011;34913;47.520;19.186;2022-08-07T06:16:16;1.13;;;1.02;;
49101;SDS011;34913;47.520;19.186;2022-08-07T06:18:44;1.10;;;1.00;;
49101;SDS011;34913;47.520;19.186;2022-08-07T06:21:09;1.42;;;1.00;;
49101;SDS011;34913;47.520;19.186;2022-08-07T06:23:35;1.35;;;0.93;;
49101;SDS011;34913;47.520;19.186;2022-08-07T06:26:01;1.30;;;0.90;;
49101;SDS011;34913;47.520;19.186;2022-08-07T06:28:29;3.53;;;0.90;;
49101;SDS011;34913;47.520;19.186;2022-08-07T06:30:55;0.90;;;0.90;;
49101;SDS011;34913;47.520;19.186;2022-08-07T06:33:20;1.70;;;1.00;;
49101;SDS011;34913;47.520;19.186;2022-08-07T06:35:46;1.35;;;0.90;;
49101;SDS011;34913;47.520;19.186;2022-08-07T06:38:12;1.35;;;1.08;;
49101;SDS011;34913;47.520;19.186;2022-08-07T06:40:48;1.00;;;1.00;;
49101;SDS011;34913;47.520;19.186;2022-08-07T06:43:18;3.60;;;1.00;;
49101;SDS011;34913;47.520;19.186;2022-08-07T06:45:46;1.08;;;0.93;;
49101;SDS011;34913;47.520;19.186;2022-08-07T06:48:12;1.65;;;0.93;;
49101;SDS011;34913;47.520;19.186;2022-08-07T06:50:38;1.83;;;1.15;;
49101;SDS011;34913;47.520;19.186;2022-08-07T06:53:04;2.00;;;1.00;;
49101;SDS011;34913;47.520;19.186;2022-08-07T06:55:32;1.48;;;1.05;;
49101;SDS011;34913;47.520;19.186;2022-08-07T06:58:00;3.13;;;1.05;;
49101;SDS011;34913;47.520;19.186;2022-08-07T07:00:31;1.13;;;1.02;;
49101;SDS011;34913;47.520;19.186;2022-08-07T07:03:01;2.13;;;1.05;;
49101;SDS011;34913;47.520;19.186;2022-08-07T07:05:27;2.28;;;1.10;;
49101;SDS011;34913;47.520;19.186;2022-08-07T07:07:53;1.00;;;1.00;;
49101;SDS011;34913;47.520;19.186;2022-08-07T07:10:28;1.02;;;0.90;;
49101;SDS011;34913;47.520;19.186;2022-08-07T07:13:16;1.10;;;1.00;;
49101;SDS011;34913;47.520;19.186;2022-08-07T07:15:47;1.40;;;0.93;;
49101;SDS011;34913;47.520;19.186;2022-08-07T07:18:29;1.48;;;1.17;;
49101;SDS011;34913;47.520;19.186;2022-08-07T07:21:19;2.53;;;1.10;;
49101;SDS011;34913;47.520;19.186;2022-08-07T07:23:48;0.90;;;0.90;;
49101;SDS011;34913;47.520;19.186;2022-08-07T07:26:16;6.95;;;1.00;;
49101;SDS011;34913;47.520;19.186;2022-08-07T07:31:17;1.48;;;1.10;;
49101;SDS011;34913;47.520;19.186;2022-08-07T07:33:48;3.78;;;1.00;;
49101;SDS011;34913;47.520;19.186;2022-08-07T07:36:18;1.30;;;1.07;;
49101;SDS011;34913;47.520;19.186;2022-08-07T07:38:46;2.65;;;0.90;;
49101;SDS011;34913;47.520;19.186;2022-08-07T07:41:12;1.40;;;1.00;;
49101;SDS011;34913;47.520;19.186;2022-08-07T07:43:42;2.60;;;1.20;;
49101;SDS011;34913;47.520;19.186;2022-08-07T07:46:10;2.75;;;1.10;;
49101;SDS011;34913;47.520;19.186;2022-08-07T07:48:38;1.10;;;0.95;;
49101;SDS011;34913;47.520;19.186;2022-08-07T07:51:05;1.05;;;1.02;;
49101;SDS011;34913;47.520;19.186;2022-08-07T07:53:31;2.97;;;1.00;;
49101;SDS011;34913;47.520;19.186;2022-08-07T07:55:59;2.22;;;0.90;;
49101;SDS011;34913;47.520;19.186;2022-08-07T07:58:28;1.48;;;1.05;;
49101;SDS011;34913;47.520;19.186;2022-08-07T08:00:57;1.10;;;1.00;;
49101;SDS011;34913;47.520;19.186;2022-08-07T08:03:23;1.58;;;1.13;;
49101;SDS011;34913;47.520;19.186;2022-08-07T08:05:50;2.55;;;1.00;;
49101;SDS011;34913;47.520;19.186;2022-08-07T08:08:16;1.27;;;1.00;;
49101;SDS011;34913;47.520;19.186;2022-08-07T08:10:42;2.10;;;0.90;;
49101;SDS011;34913;47.520;19.186;2022-08-07T08:13:10;1.80;;;1.00;;
49101;SDS011;34913;47.520;19.186;2022-08-07T08:15:38;1.20;;;0.80;;
49101;SDS011;34913;47.520;19.186;2022-08-07T08:18:07;1.95;;;1.10;;
49101;SDS011;34913;47.520;19.186;2022-08-07T08:20:33;1.88;;;1.00;;
49101;SDS011;34913;47.520;19.186;2022-08-07T08:22:59;2.05;;;1.00;;
49101;SDS011;34913;47.520;19.186;2022-08-07T08:25:45;2.33;;;1.20;;
49101;SDS011;34913;47.520;19.186;2022-08-07T08:28:34;0.93;;;0.93;;
49101;SDS011;34913;47.520;19.186;2022-08-07T08:31:03;1.73;;;1.20;;
49101;SDS011;34913;47.520;19.186;2022-08-07T08:33:32;3.33;;;1.20;;
49101;SDS011;34913;47.520;19.186;2022-08-07T08:35:59;3.42;;;1.08;;
49101;SDS011;34913;47.520;19.186;2022-08-07T08:38:37;2.75;;;1.27;;
49101;SDS011;34913;47.520;19.186;2022-08-07T08:54:27;2.00;;;1.10;;
49101;SDS011;34913;47.520;19.186;2022-08-07T08:56:57;3.25;;;1.20;;
49101;SDS011;34913;47.520;19.186;2022-08-07T08:59:29;4.68;;;1.25;;
49101;SDS011;34913;47.520;19.186;2022-08-07T09:07:37;2.20;;;1.27;;
49101;SDS011;34913;47.520;19.186;2022-08-07T09:10:13;1.30;;;1.00;;
49101;SDS011;34913;47.520;19.186;2022-08-07T09:21:48;2.78;;;1.15;;
49101;SDS011;34913;47.520;19.186;2022-08-07T09:35:10;1.20;;;1.10;;
49101;SDS011;34913;47.520;19.186;2022-08-07T09:49:20;3.58;;;1.67;;
49101;SDS011;34913;47.520;19.186;2022-08-07T09:51:54;2.30;;;1.30;;
49101;SDS011;34913;47.520;19.186;2022-08-07T09:59:45;2.22;;;1.10;;
49101;SDS011;34913;47.520;19.186;2022-08-07T10:11:02;2.55;;;1.17;;
49101;SDS011;34913;47.520;19.186;2022-08-07T10:21:55;2.05;;;1.00;;
49101;SDS011;34913;47.520;19.186;2022-08-07T10:24:50;1.10;;;1.10;;
49101;SDS011;34913;47.520;19.186;2022-08-07T10:41:51;1.90;;;1.30;;
49101;SDS011;34913;47.520;19.186;2022-08-07T10:44:33;1.30;;;1.20;;
49101;SDS011;34913;47.520;19.186;2022-08-07T10:52:50;2.10;;;1.15;;
49101;SDS011;34913;47.520;19.186;2022-08-07T10:55:28;1.60;;;1.20;;
49101;SDS011;34913;47.520;19.186;2022-08-07T11:00:44;2.83;;;1.23;;
49101;SDS011;34913;47.520;19.186;2022-08-07T11:06:15;4.07;;;1.48;;
49101;SDS011;34913;47.520;19.186;2022-08-07T11:14:16;2.75;;;1.55;;
49101;SDS011;34913;47.520;19.186;2022-08-07T11:17:00;1.70;;;1.40;;
49101;SDS011;34913;47.520;19.186;2022-08-07T11:30:05;1.92;;;1.40;;
49101;SDS011;34913;47.520;19.186;2022-08-07T11:32:39;1.50;;;1.30;;
49101;SDS011;34913;47.520;19.186;2022-08-07T11:35:25;2.40;;;1.63;;
49101;SDS011;34913;47.520;19.186;2022-08-07T11:38:07;2.00;;;1.50;;
49101;SDS011;34913;47.520;19.186;2022-08-07T11:40:49;1.67;;;1.58;;
49101;SDS011;34913;47.520;19.186;2022-08-07T11:59:44;1.75;;;1.65;;
49101;SDS011;34913;47.520;19.186;2022-08-07T12:10:50;2.28;;;1.60;;
49101;SDS011;34913;47.520;19.186;2022-08-07T12:16:27;1.70;;;1.60;;
49101;SDS011;34913;47.520;19.186;2022-08-07T12:19:15;4.28;;;1.60;;
49101;SDS011;34913;47.520;19.186;2022-08-07T12:27:47;2.40;;;1.83;;
49101;SDS011;34913;47.520;19.186;2022-08-07T12:30:15;1.55;;;1.45;;
49101;SDS011;34913;47.520;19.186;2022-08-07T12:32:44;1.85;;;1.70;;
49101;SDS011;34913;47.520;19.186;2022-08-07T12:35:18;2.25;;;1.73;;
49101;SDS011;34913;47.520;19.186;2022-08-07T12:37:46;1.70;;;1.60;;
49101;SDS011;34913;47.520;19.186;2022-08-07T12:40:21;5.93;;;1.67;;
49101;SDS011;34913;47.520;19.186;2022-08-07T12:42:53;3.60;;;1.63;;
49101;SDS011;34913;47.520;19.186;2022-08-07T12:45:22;1.60;;;1.50;;
49101;SDS011;34913;47.520;19.186;2022-08-07T12:48:10;1.60;;;1.50;;
49101;SDS011;34913;47.520;19.186;2022-08-07T12:53:28;1.50;;;1.40;;
49101;SDS011;34913;47.520;19.186;2022-08-07T12:56:06;3.28;;;1.52;;
49101;SDS011;34913;47.520;19.186;2022-08-07T12:58:37;2.92;;;1.80;;
49101;SDS011;34913;47.520;19.186;2022-08-07T13:06:50;1.98;;;1.50;;
49101;SDS011;34913;47.520;19.186;2022-08-07T13:12:25;2.20;;;1.70;;
49101;SDS011;34913;47.520;19.186;2022-08-07T13:17:34;3.85;;;1.77;;
49101;SDS011;34913;47.520;19.186;2022-08-07T13:20:17;3.53;;;2.30;;
49101;SDS011;34913;47.520;19.186;2022-08-07T13:23:09;2.97;;;2.10;;
49101;SDS011;34913;47.520;19.186;2022-08-07T13:25:44;2.00;;;1.85;;
49101;SDS011;34913;47.520;19.186;2022-08-07T13:28:18;2.80;;;2.35;;
49101;SDS011;34913;47.520;19.186;2022-08-07T13:31:05;3.85;;;2.42;;
49101;SDS011;34913;47.520;19.186;2022-08-07T13:33:57;2.45;;;2.25;;
49101;SDS011;34913;47.520;19.186;2022-08-07T13:36:31;2.55;;;2.20;;
49101;SDS011;34913;47.520;19.186;2022-08-07T13:39:07;2.10;;;1.90;;
49101;SDS011;34913;47.520;19.186;2022-08-07T13:44:04;2.70;;;2.50;;
49101;SDS011;34913;47.520;19.186;2022-08-07T13:46:32;2.60;;;2.15;;
49101;SDS011;34913;47.520;19.186;2022-08-07T13:49:01;3.22;;;2.70;;
49101;SDS011;34913;47.520;19.186;2022-08-07T13:51:29;2.72;;;2.53;;
49101;SDS011;34913;47.520;19.186;2022-08-07T13:54:01;2.97;;;2.67;;
49101;SDS011;34913;47.520;19.186;2022-08-07T13:56:31;2.67;;;2.47;;
49101;SDS011;34913;47.520;19.186;2022-08-07T13:58:59;3.22;;;2.35;;
49101;SDS011;34913;47.520;19.186;2022-08-07T14:01:30;3.00;;;2.65;;
49101;SDS011;34913;47.520;19.186;2022-08-07T14:03:58;2.63;;;2.42;;
49101;SDS011;34913;47.520;19.186;2022-08-07T14:06:31;3.15;;;2.35;;
49101;SDS011;34913;47.520;19.186;2022-08-07T14:08:59;3.33;;;2.33;;
49101;SDS011;34913;47.520;19.186;2022-08-07T14:11:28;2.50;;;2.30;;
49101;SDS011;34913;47.520;19.186;2022-08-07T14:13:57;3.78;;;2.67;;
49101;SDS011;34913;47.520;19.186;2022-08-07T14:16:39;5.00;;;2.40;;
49101;SDS011;34913;47.520;19.186;2022-08-07T14:19:14;4.57;;;2.40;;
49101;SDS011;34913;47.520;19.186;2022-08-07T14:21:47;2.85;;;2.40;;
49101;SDS011;34913;47.520;19.186;2022-08-07T14:24:18;4.35;;;2.10;;
49101;SDS011;34913;47.520;19.186;2022-08-07T14:26:57;3.60;;;1.90;;
49101;SDS011;34913;47.520;19.186;2022-08-07T14:29:28;2.08;;;1.88;;
49101;SDS011;34913;47.520;19.186;2022-08-07T14:31:59;2.78;;;1.98;;
49101;SDS011;34913;47.520;19.186;2022-08-07T14:34:28;2.10;;;1.90;;
49101;SDS011;34913;47.520;19.186;2022-08-07T14:36:57;2.42;;;1.85;;
49101;SDS011;34913;47.520;19.186;2022-08-07T14:39:24;3.13;;;1.90;;
49101;SDS011;34913;47.520;19.186;2022-08-07T14:41:51;2.25;;;1.90;;
49101;SDS011;34913;47.520;19.186;2022-08-07T14:44:17;3.85;;;1.75;;
49101;SDS011;34913;47.520;19.186;2022-08-07T14:46:45;2.17;;;1.95;;
49101;SDS011;34913;47.520;19.186;2022-08-07T14:49:13;2.42;;;1.92;;
49101;SDS011;34913;47.520;19.186;2022-08-07T14:51:41;2.83;;;1.95;;
49101;SDS011;34913;47.520;19.186;2022-08-07T14:54:08;3.70;;;2.10;;
49101;SDS011;34913;47.520;19.186;2022-08-07T14:56:38;3.55;;;1.95;;
49101;SDS011;34913;47.520;19.186;2022-08-07T14:59:06;4.28;;;2.17;;
49101;SDS011;34913;47.520;19.186;2022-08-07T15:01:35;3.17;;;1.88;;
49101;SDS011;34913;47.520;19.186;2022-08-07T15:04:05;2.33;;;1.98;;
49101;SDS011;34913;47.520;19.186;2022-08-07T15:06:32;4.60;;;2.10;;
49101;SDS011;34913;47.520;19.186;2022-08-07T15:09:04;2.85;;;2.22;;
49101;SDS011;34913;47.520;19.186;2022-08-07T15:11:36;2.22;;;2.03;;
49101;SDS011;34913;47.520;19.186;2022-08-07T15:14:07;2.20;;;2.00;;
49101;SDS011;34913;47.520;19.186;2022-08-07T15:19:16;2.20;;;1.92;;
49101;SDS011;34913;47.520;19.186;2022-08-07T15:21:50;2.13;;;1.92;;
49101;SDS011;34913;47.520;19.186;2022-08-07T15:24:45;2.03;;;1.90;;
49101;SDS011;34913;47.520;19.186;2022-08-07T15:27:12;2.30;;;2.03;;
49101;SDS011;34913;47.520;19.186;2022-08-07T15:29:41;3.47;;;2.00;;
49101;SDS011;34913;47.520;19.186;2022-08-07T15:32:09;2.13;;;1.92;;
49101;SDS011;34913;47.520;19.186;2022-08-07T15:34:36;3.78;;;2.05;;
49101;SDS011;34913;47.520;19.186;2022-08-07T15:37:05;2.83;;;2.00;;
49101;SDS011;34913;47.520;19.186;2022-08-07T15:39:36;5.05;;;2.03;;
49101;SDS011;34913;47.520;19.186;2022-08-07T15:42:04;1.92;;;1.83;;
49101;SDS011;34913;47.520;19.186;2022-08-07T15:44:41;2.05;;;1.88;;
49101;SDS011;34913;47.520;19.186;2022-08-07T15:47:09;2.03;;;1.73;;
49101;SDS011;34913;47.520;19.186;2022-08-07T15:49:37;3.00;;;1.60;;
49101;SDS011;34913;47.520;19.186;2022-08-07T15:52:06;3.03;;;1.83;;
49101;SDS011;34913;47.520;19.186;2022-08-07T15:54:35;4.10;;;2.10;;
49101;SDS011;34913;47.520;19.186;2022-08-07T15:57:03;2.55;;;1.70;;
49101;SDS011;34913;47.520;19.186;2022-08-07T15:59:30;2.30;;;1.77;;
49101;SDS011;34913;47.520;19.186;2022-08-07T16:01:57;2.60;;;1.73;;
49101;SDS011;34913;47.520;19.186;2022-08-07T16:04:27;2.40;;;1.70;;
49101;SDS011;34913;47.520;19.186;2022-08-07T16:06:55;1.73;;;1.63;;
49101;SDS011;34913;47.520;19.186;2022-08-07T16:09:24;1.85;;;1.60;;
49101;SDS011;34913;47.520;19.186;2022-08-07T16:17:25;2.05;;;1.40;;
49101;SDS011;34913;47.520;19.186;2022-08-07T16:22:48;1.98;;;1.60;;
49101;SDS011;34913;47.520;19.186;2022-08-07T16:33:44;3.35;;;1.75;;
49101;SDS011;34913;47.520;19.186;2022-08-07T16:41:52;7.80;;;1.80;;
49101;SDS011;34913;47.520;19.186;2022-08-07T16:47:24;3.78;;;1.50;;
49101;SDS011;34913;47.520;19.186;2022-08-07T16:55:38;2.92;;;1.60;;
49101;SDS011;34913;47.520;19.186;2022-08-07T16:58:20;2.85;;;1.60;;
49101;SDS011;34913;47.520;19.186;2022-08-07T17:00:57;5.32;;;2.17;;
49101;SDS011;34913;47.520;19.186;2022-08-07T17:03:26;6.40;;;2.45;;
49101;SDS011;34913;47.520;19.186;2022-08-07T17:09:15;4.13;;;1.80;;
49101;SDS011;34913;47.520;19.186;2022-08-07T17:14:17;4.57;;;1.98;;
49101;SDS011;34913;47.520;19.186;2022-08-07T17:16:54;2.42;;;2.08;;
49101;SDS011;34913;47.520;19.186;2022-08-07T17:21:57;7.78;;;2.00;;
49101;SDS011;34913;47.520;19.186;2022-08-07T17:27:09;4.60;;;1.77;;
49101;SDS011;34913;47.520;19.186;2022-08-07T17:35:37;6.07;;;2.10;;
49101;SDS011;34913;47.520;19.186;2022-08-07T17:43:36;3.10;;;1.98;;
49101;SDS011;34913;47.520;19.186;2022-08-07T17:48:54;2.72;;;1.90;;
49101;SDS011;34913;47.520;19.186;2022-08-07T17:51:43;1.98;;;1.70;;
49101;SDS011;34913;47.520;19.186;2022-08-07T17:56:50;3.25;;;1.90;;
49101;SDS011;34913;47.520;19.186;2022-08-07T17:59:38;2.60;;;1.85;;
49101;SDS011;34913;47.520;19.186;2022-08-07T18:10:01;3.47;;;1.90;;
49101;SDS011;34913;47.520;19.186;2022-08-07T18:12:53;3.90;;;1.80;;
49101;SDS011;34913;47.520;19.186;2022-08-07T18:15:41;3.35;;;1.75;;
49101;SDS011;34913;47.520;19.186;2022-08-07T18:18:12;2.35;;;2.00;;
49101;SDS011;34913;47.520;19.186;2022-08-07T18:20:53;2.72;;;1.60;;
49101;SDS011;34913;47.520;19.186;2022-08-07T18:23:44;2.95;;;1.60;;
49101;SDS011;34913;47.520;19.186;2022-08-07T18:26:17;3.45;;;1.63;;
49101;SDS011;34913;47.520;19.186;2022-08-07T18:29:03;3.08;;;1.30;;
49101;SDS011;34913;47.520;19.186;2022-08-07T18:40:02;1.83;;;1.40;;
49101;SDS011;34913;47.520;19.186;2022-08-07T18:45:14;2.72;;;1.27;;
49101;SDS011;34913;47.520;19.186;2022-08-07T18:56:43;2.00;;;1.40;;
49101;SDS011;34913;47.520;19.186;2022-08-07T18:59:17;2.22;;;1.20;;
49101;SDS011;34913;47.520;19.186;2022-08-07T19:02:05;4.85;;;1.50;;
49101;SDS011;34913;47.520;19.186;2022-08-07T19:07:33;3.92;;;1.45;;
49101;SDS011;34913;47.520;19.186;2022-08-07T19:10:11;3.25;;;1.30;;
49101;SDS011;34913;47.520;19.186;2022-08-07T19:15:17;2.30;;;1.35;;
49101;SDS011;34913;47.520;19.186;2022-08-07T19:20:48;2.45;;;1.15;;
49101;SDS011;34913;47.520;19.186;2022-08-07T19:25:49;2.28;;;1.33;;
49101;SDS011;34913;47.520;19.186;2022-08-07T19:28:22;3.08;;;1.42;;
49101;SDS011;34913;47.520;19.186;2022-08-07T19:31:20;7.13;;;2.08;;
49101;SDS011;34913;47.520;19.186;2022-08-07T19:33:49;3.38;;;1.10;;
49101;SDS011;34913;47.520;19.186;2022-08-07T19:36:16;2.42;;;1.15;;
49101;SDS011;34913;47.520;19.186;2022-08-07T19:38:45;1.50;;;1.13;;
49101;SDS011;34913;47.520;19.186;2022-08-07T19:41:15;1.77;;;1.05;;